createdAt,value
2017-02-15T00:00:36.787Z,937.63
2017-02-15T00:01:49.956Z,937.65
2017-02-15T00:03:03.106Z,937.66
2017-02-15T00:04:15.718Z,937.68
2017-02-15T00:05:28.880Z,937.72
2017-02-15T00:06:42.058Z,937.75
2017-02-15T00:07:55.233Z,937.8
2017-02-15T00:10:35.218Z,937.83
2017-02-15T00:12:01.822Z,937.86
2017-02-15T00:13:14.968Z,937.85
2017-02-15T00:14:28.135Z,937.87
2017-02-15T00:15:41.322Z,937.89
2017-02-15T00:16:54.483Z,937.92
2017-02-15T00:18:07.085Z,937.94
2017-02-15T00:19:20.260Z,937.95
2017-02-15T00:20:33.066Z,937.97
2017-02-15T00:21:46.242Z,937.96
2017-02-15T00:22:59.404Z,937.94
2017-02-15T00:24:12.033Z,937.95
2017-02-15T00:25:25.532Z,937.96
2017-02-15T00:26:38.700Z,937.97
2017-02-15T00:27:51.292Z,937.99
2017-02-15T00:29:18.480Z,938
2017-02-15T00:30:31.507Z,938.01
2017-02-15T00:31:44.969Z,938.01
2017-02-15T00:32:58.263Z,938.01
2017-02-15T00:34:11.494Z,938.01
2017-02-15T00:35:24.716Z,938.03
2017-02-15T00:36:37.350Z,938.04
2017-02-15T00:37:50.710Z,938.02
2017-02-15T00:39:04.057Z,937.99
2017-02-15T00:40:17.371Z,938.02
2017-02-15T00:41:31.076Z,938.03
2017-02-15T00:42:44.483Z,938.03
2017-02-15T00:43:57.770Z,938.03
2017-02-15T00:45:25.016Z,938.05
2017-02-15T00:46:37.889Z,937.99
2017-02-15T00:47:51.200Z,937.98
2017-02-15T00:49:04.443Z,938
2017-02-15T00:50:17.630Z,937.97
2017-02-15T00:51:30.861Z,938.02
2017-02-15T00:52:58.297Z,938.03
2017-02-15T00:54:11.516Z,938.04
2017-02-15T00:55:24.184Z,938.09
2017-02-15T00:56:37.356Z,938.08
2017-02-15T00:57:50.526Z,938.06
2017-02-15T00:59:03.691Z,938.08
2017-02-15T01:00:16.844Z,938.1
2017-02-15T01:01:30.009Z,938.06
2017-02-15T01:02:43.188Z,938.02
2017-02-15T01:05:23.524Z,938.03
2017-02-15T01:06:36.146Z,938.02
2017-02-15T01:07:49.317Z,938.01
2017-02-15T01:09:02.688Z,938
2017-02-15T01:10:15.872Z,938.03
2017-02-15T01:11:29.038Z,937.98
2017-02-15T01:12:55.632Z,937.98
2017-02-15T01:16:04.154Z,937.98
2017-02-15T01:17:16.750Z,937.97
2017-02-15T01:18:29.906Z,937.96
2017-02-15T01:19:42.509Z,937.98
2017-02-15T01:20:55.657Z,937.98
2017-02-15T01:22:08.823Z,937.97
2017-02-15T01:23:21.986Z,937.98
2017-02-15T01:24:35.144Z,938
2017-02-15T01:25:48.317Z,937.98
2017-02-15T01:27:01.485Z,937.99
2017-02-15T01:28:14.110Z,937.99
2017-02-15T01:29:27.266Z,938.01
2017-02-15T01:30:40.451Z,938
2017-02-15T01:31:53.621Z,938.03
2017-02-15T01:33:06.926Z,938.01
2017-02-15T01:34:20.224Z,938
2017-02-15T01:35:32.958Z,937.99
2017-02-15T01:36:46.247Z,938
2017-02-15T01:37:58.968Z,937.99
2017-02-15T01:39:12.255Z,938.02
2017-02-15T01:40:39.744Z,937.94
2017-02-15T01:41:53.063Z,938
2017-02-15T01:43:20.376Z,937.95
2017-02-15T01:44:33.887Z,937.95
2017-02-15T01:45:46.605Z,937.95
2017-02-15T01:46:59.900Z,937.95
2017-02-15T01:48:12.628Z,937.93
2017-02-15T01:49:25.919Z,937.98
2017-02-15T01:50:39.229Z,937.99
2017-02-15T01:51:52.533Z,937.98
2017-02-15T01:53:05.862Z,937.96
2017-02-15T01:54:19.149Z,938.02
2017-02-15T01:55:32.754Z,938
2017-02-15T01:56:45.478Z,937.98
2017-02-15T01:57:58.778Z,937.99
2017-02-15T01:59:12.082Z,937.98
2017-02-15T02:00:24.804Z,938
2017-02-15T02:01:37.726Z,938
2017-02-15T02:02:51.033Z,938.02
2017-02-15T02:04:04.337Z,938.04
2017-02-15T02:05:17.060Z,938.04
2017-02-15T02:06:30.075Z,938.01
2017-02-15T02:07:43.409Z,938.01
2017-02-15T02:08:56.704Z,938.01
2017-02-15T02:10:10.009Z,938.01
2017-02-15T02:11:23.294Z,938
2017-02-15T02:12:36.618Z,937.98
2017-02-15T02:13:49.936Z,937.97
2017-02-15T02:15:03.244Z,938
2017-02-15T02:16:29.947Z,937.95
2017-02-15T02:17:43.563Z,937.96
2017-02-15T02:18:56.853Z,937.97
2017-02-15T02:20:10.144Z,937.93
2017-02-15T02:21:23.451Z,937.97
2017-02-15T02:22:36.737Z,937.93
2017-02-15T02:23:50.027Z,937.95
2017-02-15T02:25:03.341Z,937.92
2017-02-15T02:26:16.073Z,937.93
2017-02-15T02:27:29.373Z,937.95
2017-02-15T02:28:42.300Z,937.93
2017-02-15T02:29:55.596Z,937.96
2017-02-15T02:31:08.892Z,937.97
2017-02-15T02:32:22.179Z,937.97
2017-02-15T02:33:35.471Z,937.95
2017-02-15T02:34:48.795Z,937.96
2017-02-15T02:36:02.091Z,937.91
2017-02-15T02:37:15.403Z,937.96
2017-02-15T02:38:28.695Z,937.93
2017-02-15T02:39:41.994Z,937.92
2017-02-15T02:40:55.303Z,937.9
2017-02-15T02:42:08.587Z,937.86
2017-02-15T02:43:21.307Z,937.86
2017-02-15T02:44:34.804Z,937.85
2017-02-15T02:45:48.089Z,937.83
2017-02-15T02:47:01.378Z,937.82
2017-02-15T02:48:14.680Z,937.84
2017-02-15T02:49:41.573Z,937.83
2017-02-15T02:50:54.876Z,937.85
2017-02-15T02:52:08.173Z,937.85
2017-02-15T02:53:21.475Z,937.85
2017-02-15T02:54:34.770Z,937.81
2017-02-15T02:55:48.267Z,937.8
2017-02-15T02:57:01.562Z,937.78
2017-02-15T02:58:14.870Z,937.77
2017-02-15T02:59:28.195Z,937.78
2017-02-15T03:00:41.701Z,937.76
2017-02-15T03:01:55.012Z,937.78
2017-02-15T03:03:07.066Z,937.75
2017-02-15T03:04:19.688Z,937.75
2017-02-15T03:05:32.869Z,937.73
2017-02-15T03:06:46.363Z,937.74
2017-02-15T03:07:59.535Z,937.79
2017-02-15T03:09:12.688Z,937.72
2017-02-15T03:10:25.868Z,937.72
2017-02-15T03:11:39.239Z,937.67
2017-02-15T03:12:52.393Z,937.7
2017-02-15T03:14:05.575Z,937.72
2017-02-15T03:15:18.171Z,937.69
2017-02-15T03:16:31.335Z,937.73
2017-02-15T03:17:44.794Z,937.7
2017-02-15T03:18:57.979Z,937.69
2017-02-15T03:20:11.151Z,937.69
2017-02-15T03:21:24.303Z,937.68
2017-02-15T03:22:37.468Z,937.62
2017-02-15T03:23:50.633Z,937.65
2017-02-15T03:25:03.789Z,937.63
2017-02-15T03:26:16.377Z,937.63
2017-02-15T03:27:29.557Z,937.65
2017-02-15T03:28:42.912Z,937.59
2017-02-15T03:29:56.083Z,937.6
2017-02-15T03:31:09.250Z,937.58
2017-02-15T03:32:36.410Z,937.57
2017-02-15T03:33:49.578Z,937.57
2017-02-15T03:35:02.774Z,937.55
2017-02-15T03:36:15.390Z,937.53
2017-02-15T03:37:28.559Z,937.57
2017-02-15T03:38:41.713Z,937.54
2017-02-15T03:39:54.889Z,937.53
2017-02-15T03:41:08.157Z,937.55
2017-02-15T03:42:21.335Z,937.54
2017-02-15T03:43:34.705Z,937.51
2017-02-15T03:44:47.857Z,937.52
2017-02-15T03:46:01.022Z,937.48
2017-02-15T03:47:13.626Z,937.52
2017-02-15T03:48:40.801Z,937.54
2017-02-15T03:49:53.972Z,937.56
2017-02-15T03:51:07.120Z,937.51
2017-02-15T03:52:20.269Z,937.49
2017-02-15T03:53:32.874Z,937.5
2017-02-15T03:54:46.323Z,937.53
2017-02-15T03:55:59.475Z,937.53
2017-02-15T03:57:12.083Z,937.51
2017-02-15T03:58:25.268Z,937.52
2017-02-15T03:59:38.461Z,937.52
2017-02-15T04:00:51.630Z,937.55
2017-02-15T04:02:04.809Z,937.54
2017-02-15T04:03:17.967Z,937.57
2017-02-15T04:04:31.125Z,937.56
2017-02-15T04:05:44.286Z,937.58
2017-02-15T04:06:57.436Z,937.55
2017-02-15T04:08:10.588Z,937.54
2017-02-15T04:09:23.752Z,937.52
2017-02-15T04:10:36.910Z,937.51
2017-02-15T04:11:50.075Z,937.53
2017-02-15T04:13:03.246Z,937.53
2017-02-15T04:14:16.434Z,937.48
2017-02-15T04:15:29.594Z,937.51
2017-02-15T04:16:42.955Z,937.51
2017-02-15T04:17:56.113Z,937.48
2017-02-15T04:19:08.722Z,937.47
2017-02-15T04:20:21.326Z,937.45
2017-02-15T04:21:34.489Z,937.48
2017-02-15T04:22:47.645Z,937.44
2017-02-15T04:24:14.815Z,937.46
2017-02-15T04:25:27.972Z,937.47
2017-02-15T04:26:41.331Z,937.44
2017-02-15T04:27:54.508Z,937.41
2017-02-15T04:29:07.677Z,937.39
2017-02-15T04:30:20.283Z,937.39
2017-02-15T04:31:32.891Z,937.38
2017-02-15T04:32:46.186Z,937.32
2017-02-15T04:33:59.477Z,937.33
2017-02-15T04:35:12.761Z,937.34
2017-02-15T04:36:25.495Z,937.24
2017-02-15T04:37:38.780Z,937.27
2017-02-15T04:38:52.082Z,937.22
2017-02-15T04:40:05.371Z,937.18
2017-02-15T04:41:18.663Z,937.19
2017-02-15T04:42:31.955Z,937.25
2017-02-15T04:43:45.566Z,937.22
2017-02-15T04:44:58.900Z,937.2
2017-02-15T04:46:12.204Z,937.24
2017-02-15T04:47:25.500Z,937.29
2017-02-15T04:48:39.097Z,937.25
2017-02-15T04:49:52.406Z,937.25
2017-02-15T04:51:05.711Z,937.21
2017-02-15T04:52:19.004Z,937.23
2017-02-15T04:53:32.291Z,937.23
2017-02-15T04:54:45.775Z,937.24
2017-02-15T04:55:59.082Z,937.2
2017-02-15T04:57:12.364Z,937.25
2017-02-15T04:58:25.088Z,937.25
2017-02-15T04:59:38.591Z,937.22
2017-02-15T05:00:51.893Z,937.23
2017-02-15T05:02:05.216Z,937.25
2017-02-15T05:03:17.943Z,937.24
2017-02-15T05:04:31.248Z,937.25
2017-02-15T05:05:44.737Z,937.24
2017-02-15T05:06:57.474Z,937.24
2017-02-15T05:08:10.205Z,937.26
2017-02-15T05:09:23.491Z,937.23
2017-02-15T05:10:51.078Z,937.19
2017-02-15T05:12:04.400Z,937.19
2017-02-15T05:13:17.720Z,937.22
2017-02-15T05:14:31.014Z,937.25
2017-02-15T05:15:44.509Z,937.24
2017-02-15T05:16:57.814Z,937.26
2017-02-15T05:18:10.988Z,937.24
2017-02-15T05:19:24.141Z,937.25
2017-02-15T05:20:50.729Z,937.22
2017-02-15T05:22:03.323Z,937.21
2017-02-15T05:23:16.482Z,937.24
2017-02-15T05:24:29.632Z,937.2
2017-02-15T05:25:42.221Z,937.24
2017-02-15T05:26:55.576Z,937.21
2017-02-15T05:28:08.737Z,937.24
2017-02-15T05:29:21.339Z,937.22
2017-02-15T05:30:34.520Z,937.21
2017-02-15T05:31:47.910Z,937.25
2017-02-15T05:33:01.063Z,937.21
2017-02-15T05:34:14.235Z,937.19
2017-02-15T05:35:27.393Z,937.2
2017-02-15T05:36:40.555Z,937.17
2017-02-15T05:37:53.706Z,937.23
2017-02-15T05:39:06.858Z,937.18
2017-02-15T05:40:19.454Z,937.2
2017-02-15T05:41:32.682Z,937.19
2017-02-15T05:42:46.216Z,937.19
2017-02-15T05:43:59.554Z,937.2
2017-02-15T05:45:12.897Z,937.23
2017-02-15T05:46:25.655Z,937.23
2017-02-15T05:47:39.077Z,937.21
2017-02-15T05:48:52.715Z,937.26
2017-02-15T05:50:06.043Z,937.22
2017-02-15T05:51:18.802Z,937.21
2017-02-15T05:52:32.161Z,937.25
2017-02-15T05:53:45.806Z,937.22
2017-02-15T05:54:59.130Z,937.22
2017-02-15T05:56:12.441Z,937.17
2017-02-15T05:57:25.052Z,937.21
2017-02-15T05:58:37.683Z,937.2
2017-02-15T05:59:51.046Z,937.25
2017-02-15T06:01:04.223Z,937.25
2017-02-15T06:02:16.824Z,937.28
2017-02-15T06:03:29.974Z,937.32
2017-02-15T06:04:43.132Z,937.31
2017-02-15T06:05:56.298Z,937.34
2017-02-15T06:07:09.458Z,937.33
2017-02-15T06:08:22.644Z,937.28
2017-02-15T06:09:35.801Z,937.29
2017-02-15T06:10:49.154Z,937.28
2017-02-15T06:12:02.337Z,937.23
2017-02-15T06:13:14.390Z,937.27
2017-02-15T06:14:27.040Z,937.22
2017-02-15T06:15:40.191Z,937.2
2017-02-15T06:16:52.802Z,937.21
2017-02-15T06:18:05.954Z,937.23
2017-02-15T06:19:18.025Z,937.2
2017-02-15T06:20:31.174Z,937.18
2017-02-15T06:21:44.626Z,937.15
2017-02-15T06:22:57.788Z,937.22
2017-02-15T06:24:10.981Z,937.2
2017-02-15T06:25:24.130Z,937.23
2017-02-15T06:26:37.293Z,937.25
2017-02-15T06:27:50.444Z,937.26
2017-02-15T06:29:03.606Z,937.29
2017-02-15T06:30:16.219Z,937.25
2017-02-15T06:31:29.416Z,937.28
2017-02-15T06:32:42.565Z,937.31
2017-02-15T06:33:55.720Z,937.29
2017-02-15T06:35:08.324Z,937.33
2017-02-15T06:36:20.928Z,937.3
2017-02-15T06:37:34.103Z,937.3
2017-02-15T06:38:47.284Z,937.3
2017-02-15T06:40:00.448Z,937.3
2017-02-15T06:41:13.039Z,937.31
2017-02-15T06:42:25.647Z,937.31
2017-02-15T06:43:39.015Z,937.31
2017-02-15T06:44:51.619Z,937.33
2017-02-15T06:46:04.779Z,937.34
2017-02-15T06:47:17.933Z,937.33
2017-02-15T06:48:31.398Z,937.36
2017-02-15T06:49:43.444Z,937.34
2017-02-15T06:50:56.654Z,937.37
2017-02-15T06:52:09.255Z,937.36
2017-02-15T06:53:35.486Z,937.35
2017-02-15T06:54:48.640Z,937.35
2017-02-15T06:56:01.233Z,937.38
2017-02-15T06:57:14.407Z,937.36
2017-02-15T06:58:27.560Z,937.39
2017-02-15T06:59:40.732Z,937.39
2017-02-15T07:00:53.321Z,937.37
2017-02-15T07:02:05.924Z,937.39
2017-02-15T07:03:19.082Z,937.37
2017-02-15T07:04:31.982Z,937.33
2017-02-15T07:05:45.130Z,937.37
2017-02-15T07:06:58.282Z,937.37
2017-02-15T07:08:10.882Z,937.37
2017-02-15T07:09:24.059Z,937.37
2017-02-15T07:10:37.408Z,937.37
2017-02-15T07:11:50.588Z,937.41
2017-02-15T07:13:03.753Z,937.4
2017-02-15T07:14:16.914Z,937.39
2017-02-15T07:15:30.084Z,937.35
2017-02-15T07:16:43.236Z,937.38
2017-02-15T07:17:56.399Z,937.37
2017-02-15T07:19:08.995Z,937.38
2017-02-15T07:20:22.153Z,937.35
2017-02-15T07:21:35.525Z,937.37
2017-02-15T07:22:48.669Z,937.41
2017-02-15T07:24:01.818Z,937.41
2017-02-15T07:25:14.442Z,937.43
2017-02-15T07:26:27.613Z,937.45
2017-02-15T07:27:40.766Z,937.46
2017-02-15T07:28:53.361Z,937.43
2017-02-15T07:30:06.541Z,937.4
2017-02-15T07:31:19.730Z,937.46
2017-02-15T07:32:33.099Z,937.47
2017-02-15T07:33:46.393Z,937.44
2017-02-15T07:34:59.711Z,937.48
2017-02-15T07:36:13.019Z,937.46
2017-02-15T07:37:26.602Z,937.5
2017-02-15T07:38:38.764Z,937.47
2017-02-15T07:39:51.498Z,937.48
2017-02-15T07:41:04.219Z,937.47
2017-02-15T07:42:17.501Z,937.43
2017-02-15T07:43:31.087Z,937.46
2017-02-15T07:44:44.372Z,937.43
2017-02-15T07:46:11.063Z,937.47
2017-02-15T07:47:38.059Z,937.47
2017-02-15T07:48:51.354Z,937.49
2017-02-15T07:50:04.663Z,937.51
2017-02-15T07:51:17.967Z,937.51
2017-02-15T07:52:30.682Z,937.55
2017-02-15T07:53:44.284Z,937.54
2017-02-15T07:54:57.587Z,937.59
2017-02-15T07:56:10.891Z,937.55
2017-02-15T07:58:51.186Z,937.59
2017-02-15T08:00:04.507Z,937.59
2017-02-15T08:01:31.800Z,937.58
2017-02-15T08:02:45.284Z,937.59
2017-02-15T08:03:58.037Z,937.62
2017-02-15T08:05:11.343Z,937.64
2017-02-15T08:06:24.631Z,937.64
2017-02-15T08:07:37.929Z,937.65
2017-02-15T08:08:51.428Z,937.66
2017-02-15T08:10:04.734Z,937.63
2017-02-15T08:11:18.058Z,937.65
2017-02-15T08:12:31.346Z,937.66
2017-02-15T08:13:44.648Z,937.63
2017-02-15T08:14:57.957Z,937.69
2017-02-15T08:16:11.250Z,937.67
2017-02-15T08:17:24.529Z,937.68
2017-02-15T08:18:37.815Z,937.72
2017-02-15T08:19:51.309Z,937.72
2017-02-15T08:21:04.610Z,937.72
2017-02-15T08:22:17.326Z,937.76
2017-02-15T08:23:30.056Z,937.8
2017-02-15T08:24:43.550Z,937.79
2017-02-15T08:25:56.838Z,937.79
2017-02-15T08:27:10.136Z,937.8
2017-02-15T08:28:23.441Z,937.81
2017-02-15T08:29:36.735Z,937.85
2017-02-15T08:30:50.068Z,937.89
2017-02-15T08:32:03.376Z,937.9
2017-02-15T08:33:16.659Z,937.9
2017-02-15T08:34:29.390Z,937.91
2017-02-15T08:35:41.845Z,937.92
2017-02-15T08:36:54.576Z,937.92
2017-02-15T08:38:07.876Z,937.94
2017-02-15T08:39:21.176Z,937.95
2017-02-15T08:40:33.890Z,937.96
2017-02-15T08:41:47.408Z,937.97
2017-02-15T08:43:00.712Z,937.97
2017-02-15T08:44:14.014Z,937.96
2017-02-15T08:45:27.304Z,937.98
2017-02-15T08:46:40.345Z,937.98
2017-02-15T08:47:53.663Z,938.01
2017-02-15T08:49:06.974Z,937.98
2017-02-15T08:50:19.148Z,938.01
2017-02-15T08:51:46.706Z,938.03
2017-02-15T08:52:59.469Z,938.06
2017-02-15T08:54:12.765Z,938.09
2017-02-15T08:55:26.075Z,938.09
2017-02-15T08:56:53.555Z,938.1
2017-02-15T08:58:06.843Z,938.1
2017-02-15T08:59:19.608Z,938.13
2017-02-15T09:00:32.892Z,938.13
2017-02-15T09:01:46.204Z,938.17
2017-02-15T09:02:59.502Z,938.2
2017-02-15T09:04:12.853Z,938.2
2017-02-15T09:05:26.153Z,938.23
2017-02-15T09:06:39.448Z,938.22
2017-02-15T09:07:52.751Z,938.22
2017-02-15T09:09:05.480Z,938.22
2017-02-15T09:10:18.208Z,938.24
2017-02-15T09:11:31.510Z,938.27
2017-02-15T09:12:44.804Z,938.3
2017-02-15T09:15:24.832Z,938.26
2017-02-15T09:16:38.123Z,938.29
2017-02-15T09:17:51.425Z,938.31
2017-02-15T09:19:04.944Z,938.31
2017-02-15T09:20:18.228Z,938.32
2017-02-15T09:21:31.517Z,938.33
2017-02-15T09:22:44.246Z,938.37
2017-02-15T09:23:57.760Z,938.38
2017-02-15T09:25:11.075Z,938.42
2017-02-15T09:26:24.363Z,938.47
2017-02-15T09:27:37.673Z,938.49
2017-02-15T09:28:50.405Z,938.48
2017-02-15T09:30:03.147Z,938.51
2017-02-15T09:31:15.885Z,938.51
2017-02-15T09:32:29.191Z,938.52
2017-02-15T09:33:42.479Z,938.54
2017-02-15T09:35:09.954Z,938.56
2017-02-15T09:36:23.255Z,938.61
2017-02-15T09:37:36.571Z,938.65
2017-02-15T09:38:49.854Z,938.67
2017-02-15T09:40:03.407Z,938.65
2017-02-15T09:41:16.125Z,938.68
2017-02-15T09:42:29.424Z,938.69
2017-02-15T09:43:42.709Z,938.71
2017-02-15T09:44:56.007Z,938.71
2017-02-15T09:46:23.291Z,938.71
2017-02-15T09:47:36.586Z,938.73
2017-02-15T09:48:49.901Z,938.76
2017-02-15T09:50:02.638Z,938.76
2017-02-15T09:51:16.263Z,938.8
2017-02-15T09:52:29.600Z,938.8
2017-02-15T09:53:42.897Z,938.82
2017-02-15T09:54:55.627Z,938.81
2017-02-15T09:56:08.565Z,938.81
2017-02-15T09:57:21.866Z,938.83
2017-02-15T09:58:35.159Z,938.85
2017-02-15T09:59:48.444Z,938.87
2017-02-15T10:01:01.946Z,938.9
2017-02-15T10:02:14.145Z,938.92
2017-02-15T10:03:27.502Z,938.92
2017-02-15T10:04:40.219Z,938.91
2017-02-15T10:05:53.528Z,938.91
2017-02-15T10:07:07.119Z,938.95
2017-02-15T10:08:19.836Z,939.01
2017-02-15T10:09:32.568Z,939
2017-02-15T10:10:59.845Z,938.99
2017-02-15T10:13:40.435Z,938.98
2017-02-15T10:14:53.737Z,938.98
2017-02-15T10:16:21.024Z,939.01
2017-02-15T10:17:48.287Z,939.04
2017-02-15T10:19:01.015Z,939.05
2017-02-15T10:20:14.318Z,939.08
2017-02-15T10:21:27.256Z,939.1
2017-02-15T10:22:40.540Z,939.06
2017-02-15T10:23:53.830Z,939.13
2017-02-15T10:25:07.154Z,939.1
2017-02-15T10:26:19.916Z,939.1
2017-02-15T10:27:32.981Z,939.09
2017-02-15T10:28:46.285Z,939.12
2017-02-15T10:29:59.011Z,939.15
2017-02-15T10:31:12.319Z,939.12
2017-02-15T10:32:25.831Z,939.18
2017-02-15T10:33:39.161Z,939.17
2017-02-15T10:34:52.451Z,939.18
2017-02-15T10:36:19.710Z,939.21
2017-02-15T10:37:33.014Z,939.2
2017-02-15T10:38:46.304Z,939.19
2017-02-15T10:40:13.015Z,939.22
2017-02-15T10:41:26.317Z,939.23
2017-02-15T10:42:53.914Z,939.23
2017-02-15T10:44:07.204Z,939.21
2017-02-15T10:45:19.368Z,939.22
2017-02-15T10:46:32.658Z,939.22
2017-02-15T10:47:45.958Z,939.24
2017-02-15T10:48:59.256Z,939.27
2017-02-15T10:50:12.573Z,939.27
2017-02-15T10:51:25.334Z,939.3
2017-02-15T10:52:38.640Z,939.31
2017-02-15T10:53:52.679Z,939.31
2017-02-15T10:55:05.998Z,939.3
2017-02-15T10:56:18.736Z,939.27
2017-02-15T10:57:31.511Z,939.26
2017-02-15T10:58:44.818Z,939.28
2017-02-15T10:59:58.141Z,939.31
2017-02-15T11:01:10.901Z,939.32
2017-02-15T11:02:24.206Z,939.33
2017-02-15T11:03:36.949Z,939.36
2017-02-15T11:04:50.690Z,939.35
2017-02-15T11:06:04.098Z,939.35
2017-02-15T11:07:16.323Z,939.37
2017-02-15T11:08:29.708Z,939.4
2017-02-15T11:09:42.487Z,939.42
2017-02-15T11:10:55.911Z,939.45
2017-02-15T11:12:23.298Z,939.48
2017-02-15T11:13:36.238Z,939.47
2017-02-15T11:14:49.118Z,939.47
2017-02-15T11:16:02.490Z,939.46
2017-02-15T11:17:15.359Z,939.44
2017-02-15T11:18:28.675Z,939.47
2017-02-15T11:19:41.395Z,939.46
2017-02-15T11:20:54.707Z,939.47
2017-02-15T11:22:06.876Z,939.44
2017-02-15T11:23:20.205Z,939.46
2017-02-15T11:24:33.491Z,939.51
2017-02-15T11:25:46.261Z,939.49
2017-02-15T11:26:59.876Z,939.5
2017-02-15T11:28:12.641Z,939.49
2017-02-15T11:29:25.965Z,939.54
2017-02-15T11:30:39.277Z,939.52
2017-02-15T11:31:52.574Z,939.52
2017-02-15T11:33:04.788Z,939.5
2017-02-15T11:34:17.514Z,939.53
2017-02-15T11:35:30.815Z,939.55
2017-02-15T11:36:44.137Z,939.53
2017-02-15T11:37:56.870Z,939.57
2017-02-15T11:39:10.169Z,939.57
2017-02-15T11:40:22.327Z,939.58
2017-02-15T11:41:35.628Z,939.59
2017-02-15T11:42:48.913Z,939.62
2017-02-15T11:44:02.236Z,939.61
2017-02-15T11:45:15.005Z,939.67
2017-02-15T11:46:27.270Z,939.66
2017-02-15T11:47:40.777Z,939.64
2017-02-15T11:48:54.216Z,939.69
2017-02-15T11:50:07.691Z,939.71
2017-02-15T11:51:35.063Z,939.69
2017-02-15T11:52:48.574Z,939.72
2017-02-15T11:54:16.041Z,939.71
2017-02-15T11:55:29.679Z,939.72
2017-02-15T11:56:43.265Z,939.76
2017-02-15T11:57:56.880Z,939.76
2017-02-15T11:59:09.367Z,939.73
2017-02-15T12:00:22.377Z,939.76
2017-02-15T12:01:35.346Z,939.76
2017-02-15T12:02:48.448Z,939.74
2017-02-15T12:04:01.465Z,939.73
2017-02-15T12:05:14.387Z,939.79
2017-02-15T12:06:27.320Z,939.8
2017-02-15T12:07:40.874Z,939.77
2017-02-15T12:08:54.510Z,939.77
2017-02-15T12:10:08.072Z,939.8
2017-02-15T12:11:21.066Z,939.82
2017-02-15T12:12:33.541Z,939.84
2017-02-15T12:13:45.954Z,939.82
2017-02-15T12:14:59.736Z,939.85
2017-02-15T12:16:12.722Z,939.77
2017-02-15T12:17:25.184Z,939.77
2017-02-15T12:18:38.169Z,939.75
2017-02-15T12:19:51.688Z,939.81
2017-02-15T12:21:04.410Z,939.77
2017-02-15T12:22:17.160Z,939.81
2017-02-15T12:23:30.480Z,939.81
2017-02-15T12:24:43.793Z,939.79
2017-02-15T12:25:57.098Z,939.75
2017-02-15T12:27:10.407Z,939.72
2017-02-15T12:28:23.131Z,939.76
2017-02-15T12:29:36.418Z,939.76
2017-02-15T12:30:49.136Z,939.79
2017-02-15T12:32:02.430Z,939.76
2017-02-15T12:33:15.171Z,939.76
2017-02-15T12:34:27.947Z,939.72
2017-02-15T12:35:40.677Z,939.78
2017-02-15T12:36:53.989Z,939.79
2017-02-15T12:39:34.606Z,939.74
2017-02-15T12:40:48.091Z,939.75
2017-02-15T12:42:02.040Z,939.73
2017-02-15T12:43:14.305Z,939.73
2017-02-15T12:44:27.178Z,939.75
2017-02-15T12:45:40.509Z,939.73
2017-02-15T12:46:54.318Z,939.76
2017-02-15T12:48:07.194Z,939.75
2017-02-15T12:49:19.510Z,939.74
2017-02-15T12:50:33.030Z,939.76
2017-02-15T12:51:46.613Z,939.74
2017-02-15T12:52:59.945Z,939.81
2017-02-15T12:54:12.680Z,939.8
2017-02-15T12:55:25.966Z,939.85
2017-02-15T12:56:39.256Z,939.79
2017-02-15T12:57:52.542Z,939.86
2017-02-15T12:59:05.852Z,939.8
2017-02-15T13:00:18.581Z,939.78
2017-02-15T13:01:31.884Z,939.79
2017-02-15T13:02:44.609Z,939.79
2017-02-15T13:03:57.331Z,939.8
2017-02-15T13:05:10.654Z,939.81
2017-02-15T13:06:23.385Z,939.8
2017-02-15T13:07:36.695Z,939.83
2017-02-15T13:08:49.993Z,939.81
2017-02-15T13:10:17.260Z,939.82
2017-02-15T13:11:30.553Z,939.84
2017-02-15T13:12:43.841Z,939.8
2017-02-15T13:14:11.126Z,939.78
2017-02-15T13:15:24.457Z,939.78
2017-02-15T13:16:37.752Z,939.81
2017-02-15T13:17:51.054Z,939.79
2017-02-15T13:19:03.812Z,939.76
2017-02-15T13:21:43.840Z,939.83
2017-02-15T13:22:57.328Z,939.81
2017-02-15T13:24:09.474Z,939.8
2017-02-15T13:25:22.205Z,939.8
2017-02-15T13:26:35.497Z,939.77
2017-02-15T13:27:48.219Z,939.74
2017-02-15T13:29:01.152Z,939.74
2017-02-15T13:30:14.453Z,939.66
2017-02-15T13:31:41.726Z,939.66
2017-02-15T13:32:53.928Z,939.65
2017-02-15T13:34:07.242Z,939.63
2017-02-15T13:35:20.545Z,939.65
2017-02-15T13:36:33.846Z,939.61
2017-02-15T13:37:47.153Z,939.62
2017-02-15T13:39:00.090Z,939.63
2017-02-15T13:40:13.405Z,939.62
2017-02-15T13:41:26.709Z,939.64
2017-02-15T13:42:40.013Z,939.58
2017-02-15T13:43:53.323Z,939.63
2017-02-15T13:45:06.642Z,939.59
2017-02-15T13:46:20.110Z,939.62
2017-02-15T13:47:33.462Z,939.6
2017-02-15T13:48:46.785Z,939.59
2017-02-15T13:50:00.119Z,939.54
2017-02-15T13:51:26.853Z,939.56
2017-02-15T13:52:39.602Z,939.55
2017-02-15T13:53:52.330Z,939.56
2017-02-15T13:55:05.647Z,939.53
2017-02-15T13:56:18.954Z,939.52
2017-02-15T13:57:46.250Z,939.54
2017-02-15T13:58:59.001Z,939.49
2017-02-15T14:00:11.746Z,939.49
2017-02-15T14:01:37.888Z,939.45
2017-02-15T14:02:50.636Z,939.42
2017-02-15T14:04:17.383Z,939.44
2017-02-15T14:05:30.971Z,939.41
2017-02-15T14:06:44.318Z,939.43
2017-02-15T14:07:57.625Z,939.4
2017-02-15T14:09:10.377Z,939.42
2017-02-15T14:10:23.699Z,939.37
2017-02-15T14:11:37.321Z,939.36
2017-02-15T14:12:50.071Z,939.36
2017-02-15T14:14:03.404Z,939.34
2017-02-15T14:15:16.762Z,939.34
2017-02-15T14:16:30.039Z,939.3
2017-02-15T14:17:43.202Z,939.28
2017-02-15T14:18:55.808Z,939.28
2017-02-15T14:20:08.979Z,939.28
2017-02-15T14:21:22.161Z,939.24
2017-02-15T14:22:34.791Z,939.26
2017-02-15T14:23:47.964Z,939.26
2017-02-15T14:25:01.145Z,939.21
2017-02-15T14:26:13.765Z,939.1
2017-02-15T14:27:26.382Z,939.17
2017-02-15T14:28:39.240Z,939.17
2017-02-15T14:29:52.403Z,939.15
2017-02-15T14:31:05.012Z,939.16
2017-02-15T14:32:17.101Z,939.16
2017-02-15T14:33:30.578Z,939.16
2017-02-15T14:34:43.759Z,939.12
2017-02-15T14:37:24.090Z,939.08
2017-02-15T14:38:37.448Z,939.05
2017-02-15T14:39:50.613Z,939.08
2017-02-15T14:41:02.106Z,939.08
2017-02-15T14:42:15.292Z,939.06
2017-02-15T14:43:28.197Z,939.08
2017-02-15T14:44:41.366Z,939.05
2017-02-15T14:46:08.533Z,939.06
2017-02-15T14:47:49.706Z,939.02
2017-02-15T14:49:02.880Z,939.03
2017-02-15T14:50:16.052Z,938.98
2017-02-15T14:51:29.211Z,938.95
2017-02-15T14:52:42.386Z,938.94
2017-02-15T14:53:55.546Z,938.94
2017-02-15T14:55:08.352Z,938.88
2017-02-15T14:56:20.399Z,938.89
2017-02-15T14:57:33.565Z,938.87
2017-02-15T14:58:46.174Z,938.87
2017-02-15T14:59:58.766Z,938.87
2017-02-15T15:01:11.924Z,938.86
2017-02-15T15:02:24.522Z,938.85
2017-02-15T15:03:37.142Z,938.83
2017-02-15T15:04:50.322Z,938.79
2017-02-15T15:06:03.710Z,938.78
2017-02-15T15:07:15.773Z,938.76
2017-02-15T15:08:28.964Z,938.79
2017-02-15T15:09:42.148Z,938.79
2017-02-15T15:10:55.506Z,938.78
2017-02-15T15:12:08.667Z,938.74
2017-02-15T15:13:21.839Z,938.73
2017-02-15T15:14:49.089Z,938.74
2017-02-15T15:16:01.903Z,938.73
2017-02-15T15:17:15.078Z,938.69
2017-02-15T15:18:27.700Z,938.69
2017-02-15T15:19:40.868Z,938.69
2017-02-15T15:20:54.051Z,938.69
2017-02-15T15:22:07.219Z,938.7
2017-02-15T15:23:19.836Z,938.69
2017-02-15T15:24:33.008Z,938.68
2017-02-15T15:25:46.184Z,938.68
2017-02-15T15:26:59.655Z,938.69
2017-02-15T15:28:12.270Z,938.65
2017-02-15T15:29:24.334Z,938.6
2017-02-15T15:30:51.502Z,938.6
2017-02-15T15:32:04.310Z,938.6
2017-02-15T15:33:16.925Z,938.58
2017-02-15T15:34:29.543Z,938.59
2017-02-15T15:35:42.721Z,938.59
2017-02-15T15:36:55.875Z,938.55
2017-02-15T15:38:08.482Z,938.53
2017-02-15T15:39:21.113Z,938.5